UNNT/OVB METAR and TAF weather

Enter ICAO airport designator
Station Type Date Time Source
UNNT METAR 2022/05/24 11:30 UTC NOAA

UNNT 241130Z 04005MPS CAVOK 25/02 Q1017 R07/090070 R34/////// NOSIG RMK QFE753/1004


Station Type Date Time Source
UNNT Decoded METAR 2022/05/24 11:30 UTC NOAA

Station name not available
May 24, 2022 - 07:30 AM EDT / 2022.05.24 1130 UTC
Wind: from the NE (040 degrees) at 11 MPH (10 KT):0
Visibility: greater than 7 mile(s):0
Temperature: 77 F (25 C)
Dew Point: 35 F (2 C)
Relative Humidity: 22%
Pressure (altimeter): 30.03 in. Hg (1017 hPa)
ob: UNNT 241130Z 04005MPS CAVOK 25/02 Q1017 R07/090070 R34/////// NOSIG RMK QFE753/1004
cycle: 11

Station Type Date Time Source
UNNT TAF 2022/05/24 12:22 UTC NOAA

TAF UNNT 241100Z 2412/2512 05003G08MPS 8000 SCT040CB
BECMG 2416/2419 01003G08MPS NSC
BECMG 2502/2506 04006G13MPS SCT040CB
BECMG 2509/2511 07003G08MPS

Example: see airport list